Time;durP1;ratioP1;P1;durP2;ratioP2;P2;SDS_P1;SDS_P2;PMS_P1;PMS_P2;Temp;Humidity;BMP_temperature;BMP_pressure;BME280_temperature;BME280_humidity;BME280_pressure;Samples;Min_cycle;Max_cycle;Signal;HPM_P1;HPM_P2
2023/03/05 00:01:21;;;;;;;2.42;2.22;;;;;;;6.78;100.00;97784.66;5051980;28;20300;-60
2023/03/05 00:03:47;;;;;;;2.15;2.05;;;;;;;6.57;100.00;97760.28;5052221;28;20213;-59
2023/03/05 00:06:13;;;;;;;2.15;2.00;;;;;;;6.50;100.00;97753.91;5052130;28;20324;-60
2023/03/05 00:08:39;;;;;;;2.20;2.10;;;;;;;6.89;100.00;97805.38;5052063;28;20643;-60
2023/03/05 00:11:07;;;;;;;2.58;2.38;;;;;;;6.91;100.00;97808.66;5031932;28;20708;-59
2023/03/05 00:13:33;;;;;;;3.03;2.83;;;;;;;6.54;100.00;97750.19;5032025;28;20194;-60
2023/03/05 00:16:02;;;;;;;2.58;2.38;;;;;;;6.64;100.00;97755.59;5032150;28;20214;-60
2023/03/05 00:18:28;;;;;;;3.05;2.78;;;;;;;6.90;100.00;97786.44;5031763;28;20273;-59
2023/03/05 00:20:53;;;;;;;3.00;2.80;;;;;;;6.90;100.00;97795.91;5031772;28;20756;-60
2023/03/05 00:23:19;;;;;;;2.53;2.33;;;;;;;6.66;100.00;97736.59;5031936;28;20186;-60
2023/03/05 00:25:45;;;;;;;3.95;3.42;;;;;;;6.99;100.00;97790.19;5031662;28;20190;-60
2023/03/05 00:28:11;;;;;;;3.28;2.97;;;;;;;6.81;100.00;97776.75;5031514;28;20205;-60
2023/03/05 00:30:36;;;;;;;3.72;3.40;;;;;;;6.50;100.00;97740.22;5031800;28;20269;-60
2023/03/05 00:33:01;;;;;;;5.82;3.80;;;;;;;6.84;100.00;97804.00;5011699;28;20253;-60
2023/03/05 00:35:27;;;;;;;10.32;6.80;;;;;;;6.52;100.00;97748.69;5011737;28;20203;-60
2023/03/05 00:37:53;;;;;;;13.00;8.25;;;;;;;6.42;100.00;97748.41;5012308;28;20191;-60
2023/03/05 00:40:18;;;;;;;15.85;10.10;;;;;;;6.11;100.00;97707.56;5011551;28;20700;-60
2023/03/05 00:42:44;;;;;;;16.55;10.35;;;;;;;6.15;100.00;97703.91;5027685;28;20649;-60
2023/03/05 00:45:10;;;;;;;13.73;9.25;;;;;;;6.32;100.00;97734.50;5031184;28;20193;-60
2023/03/05 00:47:36;;;;;;;13.85;9.00;;;;;;;6.37;100.00;97729.91;5031736;28;20285;-60
2023/03/05 00:50:02;;;;;;;8.10;5.75;;;;;;;6.42;100.00;97727.03;5031096;28;20245;-60
2023/03/05 00:52:28;;;;;;;6.72;5.20;;;;;;;6.62;100.00;97783.13;5031257;28;20289;-60
2023/03/05 00:54:53;;;;;;;6.95;3.95;;;;;;;6.67;100.00;97791.38;5030831;28;20272;-60
2023/03/05 00:57:19;;;;;;;4.70;3.53;;;;;;;6.47;100.00;97737.84;5031354;28;20277;-60
2023/03/05 00:59:44;;;;;;;3.53;3.10;;;;;;;6.43;100.00;97732.09;5030578;28;20183;-60
2023/03/05 01:02:10;;;;;;;3.50;3.05;;;;;;;6.44;100.00;97715.75;5030785;28;20588;-60
2023/03/05 01:04:35;;;;;;;2.92;2.72;;;;;;;6.81;100.00;97771.59;5045987;28;20186;-60
2023/03/05 01:07:01;;;;;;;2.58;2.38;;;;;;;6.28;100.00;97679.09;5050713;28;20189;-60
2023/03/05 01:09:26;;;;;;;2.50;2.30;;;;;;;6.61;100.00;97728.34;5051050;28;20189;-60
2023/03/05 01:11:52;;;;;;;3.17;2.40;;;;;;;6.80;100.00;97753.69;5050606;28;20188;-60
2023/03/05 01:14:18;;;;;;;2.40;2.20;;;;;;;6.79;100.00;97765.75;5050646;28;20216;-60
2023/03/05 01:16:44;;;;;;;2.95;2.70;;;;;;;6.80;100.00;97766.53;5050465;28;20675;-60
2023/03/05 01:19:09;;;;;;;4.45;2.47;;;;;;;6.79;100.00;97758.03;5050527;28;20189;-60
2023/03/05 01:21:36;;;;;;;2.50;2.30;;;;;;;6.49;100.00;97703.44;5050512;28;20209;-60
2023/03/05 01:24:02;;;;;;;1.95;1.85;;;;;;;6.30;100.00;97705.50;5050672;28;20177;-60
2023/03/05 01:26:28;;;;;;;2.53;2.25;;;;;;;6.33;100.00;97705.31;5051187;28;20221;-60
2023/03/05 01:28:53;;;;;;;2.90;2.60;;;;;;;6.43;100.00;97716.66;5050297;28;20221;-60
2023/03/05 01:31:19;;;;;;;1.98;1.88;;;;;;;6.70;100.00;97758.59;5052050;28;20282;-60
2023/03/05 01:33:44;;;;;;;2.10;1.98;;;;;;;6.45;100.00;97714.81;5053062;28;20182;-60
2023/03/05 01:36:14;;;;;;;3.08;2.75;;;;;;;6.57;100.00;97764.59;5052368;28;20225;-60
2023/03/05 01:38:40;;;;;;;3.28;2.97;;;;;;;6.26;100.00;97708.34;5052597;28;20166;-59
2023/03/05 01:41:07;;;;;;;5.35;4.05;;;;;;;6.33;100.00;97717.31;5052746;28;20174;-60
2023/03/05 01:43:33;;;;;;;2.30;2.17;;;;;;;6.21;100.00;97698.38;5052745;28;20178;-59
2023/03/05 01:46:25;;;;;;;2.38;2.17;;;;;;;6.46;100.00;97756.75;5052088;28;20193;-59
2023/03/05 01:49:16;;;;;;;2.50;2.17;;;;;;;6.41;100.00;97759.59;5052443;28;20193;-59
2023/03/05 01:51:55;;;;;;;2.20;2.10;;;;;;;6.28;100.00;97758.72;5052712;28;20249;-59
2023/03/05 01:54:23;;;;;;;2.35;2.25;;;;;;;6.24;100.00;97739.28;5052820;28;20166;-59
2023/03/05 01:56:55;;;;;;;2.45;2.25;;;;;;;5.62;100.00;97655.00;5052261;28;20197;-60
2023/03/05 01:59:22;;;;;;;2.63;2.42;;;;;;;6.18;100.00;97746.53;5052672;28;20166;-60
2023/03/05 02:01:51;;;;;;;3.15;2.38;;;;;;;5.92;100.00;97730.16;5052256;28;20186;-59
2023/03/05 02:04:19;;;;;;;2.88;2.53;;;;;;;5.78;100.00;97693.38;5052809;28;20177;-60
2023/03/05 02:06:46;;;;;;;2.92;2.72;;;;;;;6.06;100.00;97735.25;5052242;28;20181;-59
2023/03/05 02:09:12;;;;;;;2.90;2.70;;;;;;;5.85;100.00;97689.53;5053012;28;20525;-59
2023/03/05 02:11:38;;;;;;;2.67;2.47;;;;;;;5.85;100.00;97677.56;5053050;28;20255;-60
2023/03/05 02:14:04;;;;;;;3.30;3.00;;;;;;;5.81;100.00;97678.66;5056382;28;20181;-59
2023/03/05 02:16:35;;;;;;;2.67;2.47;;;;;;;5.92;100.00;97696.78;5056612;28;20198;-60
2023/03/05 02:19:07;;;;;;;2.33;2.13;;;;;;;6.11;100.00;97727.31;5056781;28;20176;-60
2023/03/05 02:21:51;;;;;;;3.17;2.97;;;;;;;6.08;100.00;97725.75;5056274;28;20170;-59
2023/03/05 02:24:41;;;;;;;3.28;2.97;;;;;;;5.99;100.00;97716.03;5056504;28;20166;-60
2023/03/05 02:27:06;;;;;;;2.60;2.40;;;;;;;5.96;100.00;97713.66;5056129;28;20177;-60
2023/03/05 02:29:33;;;;;;;3.20;2.90;;;;;;;6.05;100.00;97727.66;5056362;28;20227;-59
2023/03/05 02:32:00;;;;;;;5.15;3.97;;;;;;;6.01;100.00;97721.88;5056221;28;20188;-60
2023/03/05 02:34:25;;;;;;;3.88;3.05;;;;;;;6.00;100.00;97735.63;5055940;28;20173;-60
2023/03/05 02:36:51;;;;;;;3.10;2.80;;;;;;;6.02;100.00;97722.72;5055862;28;20197;-59
2023/03/05 02:39:16;;;;;;;2.60;2.40;;;;;;;5.82;100.00;97687.19;5055864;28;20186;-59
2023/03/05 02:41:42;;;;;;;2.88;2.67;;;;;;;5.84;100.00;97709.25;5055842;28;20235;-59
2023/03/05 02:44:08;;;;;;;3.08;2.60;;;;;;;5.91;100.00;97707.13;5055835;28;20174;-59
2023/03/05 02:46:33;;;;;;;2.60;2.40;;;;;;;5.99;100.00;97731.44;5055467;28;20189;-59
2023/03/05 02:48:59;;;;;;;2.35;2.25;;;;;;;5.89;100.00;97724.38;5055721;28;20627;-59
2023/03/05 02:51:24;;;;;;;2.25;2.13;;;;;;;5.42;100.00;97645.09;5055944;28;20227;-59
2023/03/05 02:53:49;;;;;;;2.30;2.20;;;;;;;5.66;100.00;97674.41;5055884;28;20178;-60
2023/03/05 02:56:15;;;;;;;1.98;1.77;;;;;;;5.88;100.00;97689.38;5055177;28;20216;-60
2023/03/05 02:58:40;;;;;;;2.67;2.47;;;;;;;5.91;100.00;97699.44;5055506;28;20554;-60
2023/03/05 03:01:07;;;;;;;4.60;2.00;;;;;;;5.85;100.00;97685.25;5055745;28;20205;-59
2023/03/05 03:03:33;;;;;;;2.22;1.98;;;;;;;6.14;100.00;97712.53;5055449;28;20178;-59
2023/03/05 03:05:58;;;;;;;1.80;1.67;;;;;;;5.80;100.00;97682.13;5055363;28;20181;-59
2023/03/05 03:08:23;;;;;;;2.10;2.00;;;;;;;6.22;100.00;97717.16;5055650;28;20182;-60
2023/03/05 03:10:49;;;;;;;2.25;2.10;;;;;;;5.87;100.00;97662.88;5055309;28;20640;-60
2023/03/05 03:13:14;;;;;;;2.38;2.13;;;;;;;5.75;100.00;97653.31;5055505;28;20721;-60
2023/03/05 03:15:40;;;;;;;2.25;2.05;;;;;;;6.16;100.00;97720.94;5055120;28;20251;-60
2023/03/05 03:18:05;;;;;;;2.88;2.67;;;;;;;6.11;100.00;97706.75;5055150;28;20261;-60
2023/03/05 03:20:31;;;;;;;2.85;2.60;;;;;;;5.88;100.00;97669.66;5054819;28;20251;-60
2023/03/05 03:22:57;;;;;;;3.65;3.25;;;;;;;6.23;100.00;97727.34;5054349;28;20625;-59
2023/03/05 03:25:22;;;;;;;3.40;3.10;;;;;;;6.02;100.00;97676.50;5054932;28;20276;-60
2023/03/05 03:27:48;;;;;;;4.35;3.95;;;;;;;6.03;100.00;97681.56;5054973;28;20174;-60
2023/03/05 03:30:14;;;;;;;7.70;4.70;;;;;;;6.15;100.00;97706.47;5054897;28;20177;-60
2023/03/05 03:32:39;;;;;;;3.70;3.40;;;;;;;6.21;100.00;97702.69;5054893;28;20184;-59
2023/03/05 03:35:05;;;;;;;4.07;3.00;;;;;;;5.72;100.00;97648.38;5055298;28;20178;-60
2023/03/05 03:37:31;;;;;;;2.85;2.65;;;;;;;5.73;100.00;97660.31;5052448;28;20604;-60
2023/03/05 03:39:56;;;;;;;3.13;2.90;;;;;;;5.98;100.00;97698.97;5052612;28;20228;-60
2023/03/05 03:42:23;;;;;;;3.25;2.90;;;;;;;6.08;100.00;97707.78;5052527;28;20205;-60
2023/03/05 03:44:49;;;;;;;2.63;2.42;;;;;;;5.75;100.00;97673.84;5052269;28;20659;-60
2023/03/05 03:47:14;;;;;;;3.35;2.88;;;;;;;5.85;100.00;97685.25;5052356;28;20734;-59
2023/03/05 03:49:40;;;;;;;4.28;3.88;;;;;;;5.99;100.00;97703.19;5052272;28;20300;-60
2023/03/05 03:52:06;;;;;;;4.25;3.30;;;;;;;5.94;100.00;97697.50;5052254;28;20697;-59
2023/03/05 03:54:32;;;;;;;3.20;3.00;;;;;;;5.51;100.00;97636.88;5052388;28;20639;-59
2023/03/05 03:56:57;;;;;;;3.08;2.78;;;;;;;5.58;100.00;97653.53;5052386;28;20271;-60
2023/03/05 03:59:23;;;;;;;3.92;2.97;;;;;;;5.93;100.00;97708.69;5052071;28;20188;-60
2023/03/05 04:01:49;;;;;;;3.05;2.75;;;;;;;5.75;100.00;97683.28;5052586;28;20184;-59
2023/03/05 04:04:15;;;;;;;4.20;3.40;;;;;;;5.87;100.00;97698.81;5052428;28;20200;-59
2023/03/05 04:06:40;;;;;;;3.13;2.35;;;;;;;5.46;100.00;97656.84;5052229;28;20177;-60
2023/03/05 04:09:09;;;;;;;2.80;2.60;;;;;;;5.70;100.00;97688.72;5053548;28;20671;-60
2023/03/05 04:11:36;;;;;;;3.08;2.88;;;;;;;5.71;100.00;97698.03;5054167;28;20260;-60
2023/03/05 04:14:03;;;;;;;3.50;3.15;;;;;;;5.67;100.00;97719.69;5054072;28;20647;-60
2023/03/05 04:16:28;;;;;;;4.30;3.60;;;;;;;5.50;100.00;97691.66;5054238;28;20197;-59
2023/03/05 04:18:53;;;;;;;3.20;2.90;;;;;;;5.34;100.00;97652.44;5053951;28;20576;-59
2023/03/05 04:21:19;;;;;;;3.47;3.17;;;;;;;5.69;100.00;97705.03;5053629;28;20193;-59
2023/03/05 04:23:45;;;;;;;4.55;3.13;;;;;;;5.49;100.00;97650.69;5054512;28;20232;-59
2023/03/05 04:26:10;;;;;;;2.53;2.33;;;;;;;5.49;100.00;97650.69;5053855;28;20565;-60
2023/03/05 04:28:35;;;;;;;2.95;2.75;;;;;;;5.33;100.00;97652.53;5053519;28;20656;-60
2023/03/05 04:31:02;;;;;;;3.85;3.47;;;;;;;5.73;100.00;97697.97;5053758;28;20192;-60
2023/03/05 04:33:27;;;;;;;2.85;2.65;;;;;;;5.77;100.00;97712.28;5054018;28;20261;-59
2023/03/05 04:35:53;;;;;;;4.00;2.70;;;;;;;5.66;100.00;97673.59;5052798;28;20276;-60
2023/03/05 04:38:18;;;;;;;2.72;2.53;;;;;;;5.54;100.00;97649.50;5054188;28;20235;-60
2023/03/05 04:40:46;;;;;;;3.13;2.83;;;;;;;5.87;100.00;97698.81;5053643;28;20170;-60
2023/03/05 04:43:12;;;;;;;2.50;2.30;;;;;;;5.55;100.00;97635.75;5053260;28;20182;-59
2023/03/05 04:45:42;;;;;;;2.70;2.50;;;;;;;5.98;100.00;97701.53;5053794;28;20200;-59
2023/03/05 04:48:09;;;;;;;3.58;2.30;;;;;;;5.66;100.00;97653.88;5053951;28;20178;-60
2023/03/05 04:50:35;;;;;;;2.78;2.50;;;;;;;5.78;100.00;97676.22;5053396;28;20259;-60
2023/03/05 04:53:01;;;;;;;2.35;2.25;;;;;;;5.69;100.00;97651.13;5053082;28;20604;-60
2023/03/05 04:55:27;;;;;;;2.80;2.60;;;;;;;5.30;100.00;97601.44;5052964;28;20311;-59
2023/03/05 04:57:52;;;;;;;2.70;2.50;;;;;;;5.95;100.00;97704.28;5053272;28;20178;-59
2023/03/05 05:00:20;;;;;;;2.50;2.30;;;;;;;5.73;100.00;97646.63;5053241;28;20196;-59
2023/03/05 05:02:48;;;;;;;2.65;2.45;;;;;;;5.55;100.00;97653.69;5053204;28;20648;-59
2023/03/05 05:05:18;;;;;;;3.90;3.03;;;;;;;5.96;100.00;97721.38;5053364;28;20174;-59
2023/03/05 05:07:43;;;;;;;4.60;4.13;;;;;;;5.86;100.00;97683.50;5053105;28;20182;-59
2023/03/05 05:10:11;;;;;;;12.88;8.63;;;;;;;5.80;100.00;97679.56;5053086;28;20180;-60
2023/03/05 05:12:37;;;;;;;14.23;9.10;;;;;;;5.87;100.00;97703.94;5053788;28;20190;-59
2023/03/05 05:15:03;;;;;;;17.52;10.85;;;;;;;6.08;100.00;97736.03;5053174;28;20192;-59
2023/03/05 05:17:31;;;;;;;18.98;12.15;;;;;;;6.12;100.00;97723.81;5052871;28;20208;-60
2023/03/05 05:19:57;;;;;;;19.48;12.25;;;;;;;6.23;100.00;97729.91;5052829;28;20267;-59
2023/03/05 05:22:23;;;;;;;20.10;11.95;;;;;;;6.37;100.00;97729.06;5052540;28;20177;-60
2023/03/05 05:24:48;;;;;;;20.48;12.80;;;;;;;6.38;100.00;97721.28;5053387;28;20584;-60
2023/03/05 05:27:14;;;;;;;19.90;12.98;;;;;;;6.24;100.00;97690.47;5053010;28;20735;-60
2023/03/05 05:29:39;;;;;;;18.58;12.88;;;;;;;6.27;100.00;97707.44;5052712;28;20228;-60
2023/03/05 05:32:05;;;;;;;8.60;6.45;;;;;;;6.27;100.00;97728.81;5052932;28;20184;-60
2023/03/05 05:34:30;;;;;;;4.60;3.30;;;;;;;6.07;100.00;97711.22;5052565;28;20186;-60
2023/03/05 05:36:56;;;;;;;2.83;2.63;;;;;;;5.82;100.00;97664.09;5052538;28;20207;-60
2023/03/05 05:39:21;;;;;;;2.38;2.17;;;;;;;5.89;100.00;97675.63;5052538;28;20188;-60
2023/03/05 05:41:50;;;;;;;2.70;2.47;;;;;;;6.05;100.00;97712.25;5052841;28;20169;-59
2023/03/05 05:44:16;;;;;;;2.60;2.40;;;;;;;6.16;100.00;97731.22;5052785;28;20651;-60
2023/03/05 05:46:41;;;;;;;3.72;2.85;;;;;;;5.68;100.00;97661.50;5052467;28;20260;-59
2023/03/05 05:49:06;;;;;;;4.95;3.97;;;;;;;5.85;100.00;97669.00;5052744;28;20169;-59
2023/03/05 05:51:32;;;;;;;3.78;3.20;;;;;;;6.34;100.00;97736.94;5052451;28;20172;-59
2023/03/05 05:53:57;;;;;;;2.60;2.40;;;;;;;6.31;100.00;97732.03;5052102;28;20717;-59
2023/03/05 05:56:23;;;;;;;2.38;2.28;;;;;;;6.40;100.00;97719.41;5053217;28;20217;-59
2023/03/05 05:58:50;;;;;;;2.80;2.60;;;;;;;6.07;100.00;97677.03;5051999;28;20197;-59
2023/03/05 06:01:21;;;;;;;2.88;2.47;;;;;;;6.51;100.00;97729.84;5052897;28;20189;-59
2023/03/05 06:03:47;;;;;;;2.58;2.38;;;;;;;6.65;100.00;97746.97;5052606;28;20209;-59
2023/03/05 06:06:16;;;;;;;2.50;2.40;;;;;;;6.73;100.00;97743.00;5052241;28;20181;-60
2023/03/05 06:08:42;;;;;;;2.50;2.30;;;;;;;6.50;100.00;97679.38;5052544;28;20635;-60
2023/03/05 06:11:08;;;;;;;2.33;2.13;;;;;;;6.86;100.00;97733.56;5052230;28;20177;-60
2023/03/05 06:13:33;;;;;;;2.10;2.00;;;;;;;6.66;100.00;97695.47;5052156;28;20182;-59
2023/03/05 06:16:02;;;;;;;2.47;2.38;;;;;;;7.00;100.00;97751.50;5052033;28;20205;-59
2023/03/05 06:18:28;;;;;;;2.42;2.30;;;;;;;6.99;100.00;97749.03;5052440;28;20232;-60
2023/03/05 06:20:58;;;;;;;2.10;2.00;;;;;;;7.02;100.00;97747.09;5052167;28;20173;-60
2023/03/05 06:23:24;;;;;;;2.83;2.63;;;;;;;6.98;100.00;97732.78;5052117;28;20178;-60
2023/03/05 06:25:49;;;;;;;6.03;5.43;;;;;;;7.27;100.00;97769.44;5052130;28;20181;-60
2023/03/05 06:28:18;;;;;;;19.83;12.07;;;;;;;7.41;100.00;97775.34;5052009;28;20178;-60
2023/03/05 06:30:44;;;;;;;29.95;19.65;;;;;;;6.80;100.00;97682.53;5051766;28;20562;-60
2023/03/05 06:33:09;;;;;;;29.13;17.98;;;;;;;7.09;100.00;97704.59;5052025;28;20323;-60
2023/03/05 06:35:38;;;;;;;32.20;17.88;;;;;;;7.13;100.00;97698.34;5051919;28;20573;-60
2023/03/05 06:38:05;;;;;;;25.30;16.38;;;;;;;7.43;100.00;97729.75;5051933;28;20272;-60
2023/03/05 06:40:30;;;;;;;25.02;15.98;;;;;;;7.46;100.00;97714.09;5052449;28;20272;-59
2023/03/05 06:42:55;;;;;;;32.28;17.80;;;;;;;7.55;100.00;97698.03;5051943;28;20327;-59
2023/03/05 06:45:21;;;;;;;29.90;17.63;;;;;;;7.72;100.00;97704.63;5049914;28;20682;-60
2023/03/05 06:47:46;;;;;;;28.90;18.88;;;;;;;7.79;100.00;97698.94;5049685;28;20271;-60
2023/03/05 06:50:12;;;;;;;19.90;12.95;;;;;;;8.22;100.00;97751.75;5049709;28;20187;-60
2023/03/05 06:52:39;;;;;;;3.40;3.10;;;;;;;8.21;100.00;97729.47;5049536;28;20186;-60
2023/03/05 06:55:06;;;;;;;4.32;2.65;;;;;;;7.89;100.00;97658.75;5049059;28;20237;-60
2023/03/05 06:57:32;;;;;;;4.22;2.22;;;;;;;8.22;100.00;97710.50;5049343;28;20186;-59
2023/03/05 06:59:57;;;;;;;2.47;2.28;;;;;;;8.45;100.00;97761.28;5052459;28;20730;-60
2023/03/05 07:02:23;;;;;;;10.90;8.27;;;;;;;8.27;100.00;97715.38;5053415;28;20208;-60
2023/03/05 07:04:48;;;;;;;35.28;21.00;;;;;;;8.35;100.00;97757.72;5053353;28;20185;-60
2023/03/05 07:07:14;;;;;;;37.63;21.00;;;;;;;8.19;100.00;97721.03;5052962;28;20189;-60
2023/03/05 07:09:42;;;;;;;31.13;20.08;;;;;;;8.36;100.00;97749.03;5053264;28;20707;-60
2023/03/05 07:12:11;;;;;;;31.52;20.30;;;;;;;8.32;100.00;97734.72;5053075;28;20675;-60
2023/03/05 07:14:37;;;;;;;32.55;20.70;;;;;;;8.34;100.00;97761.19;5052827;28;20760;-60
2023/03/05 07:17:07;;;;;;;28.67;18.15;;;;;;;8.26;100.00;97747.19;5054604;28;20209;-60
2023/03/05 07:19:33;;;;;;;31.20;20.50;;;;;;;8.23;100.00;97730.22;5055728;28;20655;-60
2023/03/05 07:21:58;;;;;;;32.97;21.27;;;;;;;8.60;100.00;97782.56;5055132;28;20296;-59
2023/03/05 07:24:28;;;;;;;30.92;21.77;;;;;;;8.36;100.00;97727.59;5054427;28;20648;-60
2023/03/05 07:26:55;;;;;;;32.40;21.08;;;;;;;8.46;100.00;97739.72;5054712;28;20169;-60
2023/03/05 07:29:20;;;;;;;29.95;20.17;;;;;;;8.75;100.00;97781.50;5054965;28;20182;-60
2023/03/05 07:31:46;;;;;;;32.65;21.45;;;;;;;8.43;100.00;97731.38;5052511;28;20240;-60
2023/03/05 07:34:11;;;;;;;30.95;20.73;;;;;;;8.78;100.00;97776.94;5052559;28;20189;-60
2023/03/05 07:36:36;;;;;;;37.33;21.60;;;;;;;8.66;100.00;97764.91;5052366;28;20205;-60
2023/03/05 07:39:04;;;;;;;31.38;20.27;;;;;;;8.44;100.00;97728.69;5052276;28;20332;-60
2023/03/05 07:41:29;;;;;;;29.08;19.88;;;;;;;8.46;100.00;97734.56;5052570;28;20198;-60
2023/03/05 07:43:55;;;;;;;36.60;22.95;;;;;;;8.47;100.00;97725.09;5052346;28;20667;-60
2023/03/05 07:46:24;;;;;;;32.00;18.73;;;;;;;8.35;100.00;97716.47;5052234;28;20201;-60
2023/03/05 07:48:50;;;;;;;31.15;19.27;;;;;;;8.19;100.00;97715.88;5052165;28;20206;-60
2023/03/05 07:51:17;;;;;;;30.55;20.13;;;;;;;8.26;100.00;97714.53;5052761;28;20220;-60
2023/03/05 07:53:45;;;;;;;30.48;20.08;;;;;;;8.52;100.00;97759.09;5052101;28;20190;-60
2023/03/05 07:56:10;;;;;;;29.55;20.15;;;;;;;8.35;100.00;97703.59;5051854;28;20244;-60
2023/03/05 07:58:36;;;;;;;35.35;21.13;;;;;;;8.74;100.00;97760.03;5052390;28;20209;-60
2023/03/05 08:01:02;;;;;;;30.98;20.42;;;;;;;8.61;100.00;97753.28;5052364;28;20185;-60
2023/03/05 08:03:28;;;;;;;28.52;19.70;;;;;;;8.70;100.00;97742.31;5053958;28;20190;-60
2023/03/05 08:05:53;;;;;;;29.20;20.65;;;;;;;8.81;100.00;97745.78;5054262;28;20176;-60
2023/03/05 08:08:18;;;;;;;33.17;21.25;;;;;;;8.51;100.00;97700.75;5054290;28;20303;-60
2023/03/05 08:10:44;;;;;;;31.23;21.35;;;;;;;8.90;100.00;97752.00;5053919;28;20264;-58
2023/03/05 08:13:09;;;;;;;35.78;22.83;;;;;;;8.91;100.00;97736.44;5054027;28;20239;-58
2023/03/05 08:15:38;;;;;;;33.33;22.58;;;;;;;8.68;100.00;97685.69;5054326;28;20205;-58
2023/03/05 08:18:03;;;;;;;33.63;21.55;;;;;;;8.97;100.00;97717.94;5053073;28;20531;-59
2023/03/05 08:20:29;;;;;;;34.28;22.52;;;;;;;9.09;100.00;97739.44;5054495;28;20184;-59
2023/03/05 08:22:54;;;;;;;33.97;21.42;;;;;;;9.15;100.00;97733.84;5054577;28;20190;-59
2023/03/05 08:25:20;;;;;;;34.65;23.95;;;;;;;9.19;100.00;97736.06;5054032;28;20261;-59
2023/03/05 08:27:46;;;;;;;38.25;23.55;;;;;;;8.94;100.00;97687.22;5054283;28;20180;-59
2023/03/05 08:30:16;;;;;;;37.28;24.05;;;;;;;9.21;100.00;97723.06;5053793;28;20185;-59
2023/03/05 08:32:41;;;;;;;36.83;24.15;;;;;;;8.99;100.00;97676.53;5053767;28;20178;-59
2023/03/05 08:35:08;;;;;;;40.22;24.80;;;;;;;8.89;100.00;97658.34;5053601;28;20177;-59
2023/03/05 08:37:34;;;;;;;41.35;26.25;;;;;;;9.13;100.00;97674.59;5053282;28;20563;-58
2023/03/05 08:39:59;;;;;;;38.35;23.30;;;;;;;9.34;100.00;97680.75;5053522;28;20174;-59
2023/03/05 08:42:24;;;;;;;44.13;26.52;;;;;;;9.51;100.00;97720.78;5053403;28;20189;-59
2023/03/05 08:44:50;;;;;;;38.08;24.65;;;;;;;9.56;100.00;97718.66;5053461;28;20178;-59
2023/03/05 08:47:17;;;;;;;41.88;24.77;;;;;;;9.67;100.00;97711.75;5052651;28;20182;-59
2023/03/05 08:49:43;;;;;;;68.68;33.78;;;;;;;9.29;100.00;97628.63;5053324;28;20182;-59
2023/03/05 08:52:08;;;;;;;47.28;26.08;;;;;;;9.67;100.00;97670.41;5053880;28;20193;-59
2023/03/05 08:54:36;;;;;;;51.33;26.85;;;;;;;9.99;100.00;97697.19;5052876;28;20197;-59
2023/03/05 08:57:02;;;;;;;54.10;27.38;;;;;;;10.23;100.00;97713.41;5053220;28;20198;-59
2023/03/05 08:59:27;;;;;;;41.30;23.17;;;;;;;10.33;100.00;97711.75;5052909;28;20173;-59
2023/03/05 09:01:52;;;;;;;32.33;19.95;;;;;;;10.12;100.00;97661.72;5053207;28;20181;-59
2023/03/05 09:04:18;;;;;;;35.97;21.15;;;;;;;10.42;100.00;97711.84;5053177;28;20177;-59
2023/03/05 09:06:43;;;;;;;27.75;17.52;;;;;;;10.59;100.00;97726.03;5052649;28;20197;-59
2023/03/05 09:09:09;;;;;;;26.83;17.92;;;;;;;10.37;100.00;97688.13;5052951;28;20178;-59
2023/03/05 09:11:35;;;;;;;34.55;21.42;;;;;;;10.41;100.00;97674.00;5052748;28;20181;-59
2023/03/05 09:14:05;;;;;;;31.25;19.45;;;;;;;10.73;100.00;97730.94;5052901;28;20205;-59
2023/03/05 09:16:31;;;;;;;31.77;21.27;;;;;;;10.73;100.00;97721.41;5052887;28;20675;-59
2023/03/05 09:18:58;;;;;;;35.42;19.77;;;;;;;10.87;100.00;97722.88;5052824;28;20256;-59
2023/03/05 09:21:23;;;;;;;32.30;20.63;;;;;;;10.92;100.00;97712.97;5052224;28;20667;-59
2023/03/05 09:23:48;;;;;;;29.42;17.73;;;;;;;10.96;100.00;97711.78;5053037;28;20249;-59
2023/03/05 09:26:17;;;;;;;27.33;17.42;;;;;;;10.77;100.00;97673.63;5052708;28;20186;-59
2023/03/05 09:28:43;;;;;;;28.20;17.95;;;;;;;10.65;100.00;97664.28;5052641;28;20189;-59
2023/03/05 09:31:10;;;;;;;26.00;17.08;;;;;;;10.72;100.00;97656.81;5052667;28;20178;-59
2023/03/05 09:33:36;;;;;;;24.45;17.25;;;;;;;11.13;100.00;97713.81;5052653;28;20235;-59
2023/03/05 09:36:04;;;;;;;24.70;17.08;;;;;;;10.85;100.00;97665.25;5052554;28;20201;-59
2023/03/05 09:38:29;;;;;;;23.83;16.02;;;;;;;11.08;100.00;97709.00;5052259;28;20181;-59
2023/03/05 09:41:06;;;;;;;29.55;17.85;;;;;;;10.65;100.00;97655.69;5052272;28;20181;-59
2023/03/05 09:43:44;;;;;;;28.58;18.92;;;;;;;10.96;100.00;97701.41;5052883;28;20162;-59
2023/03/05 09:46:27;;;;;;;28.08;18.05;;;;;;;11.04;100.00;97692.06;5052458;28;20683;-59
2023/03/05 09:48:56;;;;;;;39.97;21.55;;;;;;;10.80;100.00;97644.09;5052773;28;20193;-59
2023/03/05 09:51:30;;;;;;;37.13;20.60;;;;;;;11.13;100.00;97698.28;5052752;28;20182;-59
2023/03/05 09:54:16;;;;;;;27.42;16.88;;;;;;;11.18;100.00;97681.44;5052030;28;20267;-60
2023/03/05 09:56:47;;;;;;;24.52;16.63;;;;;;;11.01;100.00;97639.75;5052608;28;20259;-60
2023/03/05 09:59:39;;;;;;;29.52;19.65;;;;;;;10.79;100.00;97642.47;5052185;28;20238;-59
2023/03/05 10:02:19;;;;;;;28.92;19.33;;;;;;;10.32;100.00;97588.56;5052897;28;20161;-59
2023/03/05 10:04:56;;;;;;;25.65;17.90;;;;;;;10.86;100.00;97675.47;5051959;28;20176;-60
2023/03/05 10:07:28;;;;;;;27.63;17.60;;;;;;;10.84;100.00;97663.59;5052569;28;20508;-59
2023/03/05 10:09:59;;;;;;;31.98;19.83;;;;;;;10.97;100.00;97666.84;5052266;28;20173;-59
2023/03/05 10:12:41;;;;;;;33.88;20.90;;;;;;;11.10;100.00;97662.28;5052578;28;20172;-59
2023/03/05 10:15:15;;;;;;;31.05;18.85;;;;;;;11.22;100.00;97661.28;5051951;28;20340;-59
2023/03/05 10:18:05;;;;;;;35.13;18.63;;;;;;;11.29;100.00;97654.66;5051654;28;20235;-59
2023/03/05 10:20:45;;;;;;;29.55;17.75;;;;;;;11.24;100.00;97646.44;5051528;28;20180;-59
2023/03/05 10:23:24;;;;;;;28.10;18.20;;;;;;;11.13;100.00;97646.50;5051895;28;20192;-60
2023/03/05 10:25:58;;;;;;;35.17;18.67;;;;;;;11.28;100.00;97642.66;5051085;28;20642;-59
2023/03/05 10:28:34;;;;;;;36.03;21.58;;;;;;;11.27;100.00;97638.41;5051482;28;20177;-59
2023/03/05 10:31:15;;;;;;;25.35;17.52;;;;;;;11.21;100.00;97628.56;5052007;28;20173;-59
2023/03/05 10:34:11;;;;;;;28.20;18.00;;;;;;;11.30;100.00;97623.44;5054772;28;20177;-59
2023/03/05 10:36:59;;;;;;;30.73;19.70;;;;;;;11.42;100.00;97611.22;5056230;28;20193;-59
2023/03/05 10:39:51;;;;;;;27.38;18.30;;;;;;;11.23;100.00;97559.34;5056554;28;20584;-59
2023/03/05 10:42:22;;;;;;;31.20;19.98;;;;;;;11.31;100.00;97600.94;5055864;28;20178;-59
2023/03/05 10:44:55;;;;;;;32.22;18.88;;;;;;;11.44;100.00;97597.19;5056150;28;20220;-60
2023/03/05 10:47:28;;;;;;;29.55;19.27;;;;;;;11.29;100.00;97595.09;5055621;28;20239;-59
2023/03/05 10:49:59;;;;;;;31.20;19.52;;;;;;;11.43;100.00;97594.75;5055796;28;20170;-59
2023/03/05 10:52:35;;;;;;;32.22;19.13;;;;;;;11.23;100.00;97546.41;5055761;28;20166;-59
2023/03/05 10:55:12;;;;;;;91.03;45.72;;;;;;;11.38;100.00;97564.03;5055350;28;20668;-59
2023/03/05 10:57:38;;;;;;;36.53;21.45;;;;;;;11.18;100.00;97531.25;5055378;28;20636;-59
2023/03/05 11:00:21;;;;;;;31.65;19.60;;;;;;;11.49;100.00;97570.91;5055569;28;20178;-59
2023/03/05 11:02:59;;;;;;;32.08;20.00;;;;;;;11.56;100.00;97570.25;5055967;28;20181;-60
2023/03/05 11:05:43;;;;;;;71.00;35.38;;;;;;;11.66;100.00;97562.53;5055305;28;20212;-60
2023/03/05 11:08:20;;;;;;;169.10;64.07;;;;;;;11.70;100.00;97554.38;5055374;28;20178;-60
2023/03/05 11:10:46;;;;;;;57.88;27.55;;;;;;;11.40;100.00;97486.22;5055634;28;20235;-60
2023/03/05 11:13:26;;;;;;;31.60;19.38;;;;;;;11.45;100.00;97486.66;5055532;28;20186;-60
2023/03/05 11:15:59;;;;;;;31.58;18.67;;;;;;;11.66;100.00;97482.19;5055480;28;20698;-60
2023/03/05 11:18:25;;;;;;;42.67;22.20;;;;;;;11.45;100.00;97438.22;5055185;28;20186;-60
2023/03/05 11:20:51;;;;;;;40.55;21.90;;;;;;;11.67;100.00;97465.72;5055365;28;20529;-60
2023/03/05 11:23:25;;;;;;;29.05;18.10;;;;;;;12.03;100.00;97527.28;5054826;28;20266;-60
2023/03/05 11:26:11;;;;;;;50.35;26.08;;;;;;;12.11;100.00;97519.63;5054934;28;20170;-60
2023/03/05 11:28:39;;;;;;;42.83;21.30;;;;;;;12.17;100.00;97532.06;5054367;28;20567;-60